createdAt,value
2023-04-06T00:06:34.671Z,55.38
2023-04-06T00:16:57.888Z,54.49
2023-04-06T00:27:18.937Z,55.07
2023-04-06T00:37:40.022Z,54.43
2023-04-06T00:48:02.970Z,55.23
2023-04-06T00:58:25.679Z,54.45
2023-04-06T01:08:54.941Z,54.05
2023-04-06T01:19:19.142Z,54.90
2023-04-06T01:29:45.026Z,54.71
2023-04-06T01:40:15.225Z,54.38
2023-04-06T01:50:42.592Z,54.74
2023-04-06T02:01:06.857Z,55.05
2023-04-06T02:11:41.437Z,54.67
2023-04-06T02:22:03.078Z,54.79
2023-04-06T02:32:24.554Z,54.68
2023-04-06T02:42:46.528Z,54.79
2023-04-06T02:53:10.977Z,54.62
2023-04-06T03:03:34.154Z,54.49
2023-04-06T03:13:56.860Z,54.82
2023-04-06T03:24:17.792Z,54.46
2023-04-06T03:34:40.642Z,54.27
2023-04-06T03:45:03.824Z,54.67
2023-04-06T03:55:26.039Z,54.83
2023-04-06T04:05:47.385Z,54.99
2023-04-06T04:16:09.232Z,54.67
2023-04-06T04:26:31.157Z,54.85
2023-04-06T04:36:53.262Z,54.82
2023-04-06T04:47:23.758Z,55.05
2023-04-06T04:57:45.578Z,54.65
2023-04-06T05:08:06.850Z,54.62
2023-04-06T05:18:46.516Z,54.69
2023-04-06T05:29:08.563Z,54.57
2023-04-06T05:39:32.068Z,55.28
2023-04-06T05:49:55.088Z,55.13
2023-04-06T06:00:35.660Z,55.27
2023-04-06T06:11:01.322Z,55.21
2023-04-06T06:21:22.905Z,55.15
2023-04-06T06:31:44.459Z,55.46
2023-04-06T06:42:06.912Z,55.03
2023-04-06T06:53:07.308Z,54.82
2023-04-06T07:03:29.538Z,54.72
2023-04-06T07:13:51.128Z,55.51
2023-04-06T07:24:12.593Z,55.24
2023-04-06T07:34:37.100Z,55.34
2023-04-06T07:44:58.414Z,54.64
2023-04-06T07:55:19.732Z,54.63
2023-04-06T08:05:40.730Z,54.42
2023-04-06T08:16:01.987Z,54.01
2023-04-06T08:26:23.470Z,54.46
2023-04-06T08:36:44.761Z,54.38
2023-04-06T08:47:06.657Z,54.36
2023-04-06T08:57:28.264Z,54.35
2023-04-06T09:07:49.101Z,54.34
2023-04-06T09:18:10.584Z,53.82
2023-04-06T09:28:46.066Z,54.21
2023-04-06T09:39:07.160Z,53.62
2023-04-06T09:49:32.659Z,53.31
2023-04-06T10:00:14.534Z,52.54
2023-04-06T10:10:35.560Z,52.89
2023-04-06T10:21:07.702Z,52.80
2023-04-06T10:31:29.658Z,52.61
2023-04-06T10:41:51.521Z,52.15
2023-04-06T10:52:15.841Z,52.00
2023-04-06T11:02:39.146Z,52.03
2023-04-06T11:13:00.645Z,51.49
2023-04-06T11:23:26.548Z,51.53
2023-04-06T11:33:47.965Z,50.97
2023-04-06T11:44:09.208Z,51.71
2023-04-06T11:54:38.541Z,51.75
2023-04-06T12:05:00.549Z,51.19
2023-04-06T12:15:21.925Z,51.06
2023-04-06T12:25:43.989Z,51.23
2023-04-06T12:36:05.579Z,50.46
2023-04-06T12:46:27.364Z,50.62
2023-04-06T12:56:48.510Z,50.91
2023-04-06T13:07:09.734Z,50.74
2023-04-06T13:17:31.501Z,50.17
2023-04-06T13:27:52.830Z,50.47
2023-04-06T13:38:14.648Z,50.58
2023-04-06T13:48:35.528Z,50.24
2023-04-06T13:58:57.897Z,50.64
2023-04-06T14:09:19.208Z,50.41
2023-04-06T14:19:41.167Z,50.60
2023-04-06T14:30:02.159Z,50.91
2023-04-06T14:40:23.283Z,51.16
2023-04-06T14:50:55.153Z,50.82
2023-04-06T15:01:16.536Z,51.15
2023-04-06T15:11:37.617Z,50.81
2023-04-06T15:22:00.404Z,50.96
2023-04-06T15:32:22.834Z,51.03
2023-04-06T15:42:44.162Z,51.30
2023-04-06T15:53:05.555Z,50.69
2023-04-06T16:03:27.165Z,51.14
2023-04-06T16:13:54.711Z,51.19
2023-04-06T16:24:17.116Z,51.55
2023-04-06T16:34:38.694Z,51.58
2023-04-06T16:45:00.149Z,51.54
2023-04-06T16:55:21.377Z,52.36
2023-04-06T17:05:42.647Z,52.05
2023-04-06T17:16:04.211Z,52.67
2023-04-06T17:26:25.764Z,52.86
2023-04-06T17:36:47.303Z,52.81
2023-04-06T17:47:08.233Z,52.53
2023-04-06T17:57:29.674Z,52.10
2023-04-06T18:07:52.866Z,52.24
2023-04-06T18:18:14.316Z,52.53
2023-04-06T18:28:35.716Z,52.42
2023-04-06T18:38:56.509Z,52.60
2023-04-06T18:49:17.654Z,52.62
2023-04-06T18:59:38.822Z,52.63
2023-04-06T19:09:59.762Z,53.01
2023-04-06T19:20:20.637Z,53.12
2023-04-06T19:30:42.456Z,53.33
2023-04-06T19:41:04.232Z,53.06
2023-04-06T19:51:25.417Z,53.14
2023-04-06T20:01:46.699Z,53.60
2023-04-06T20:12:07.933Z,53.00
2023-04-06T20:22:29.344Z,53.10
2023-04-06T20:32:50.794Z,52.77
2023-04-06T20:43:12.027Z,53.28
2023-04-06T20:53:33.511Z,52.98
2023-04-06T21:03:54.932Z,53.35
2023-04-06T21:14:17.140Z,52.86
2023-04-06T21:24:39.789Z,53.21
2023-04-06T21:35:00.922Z,53.20
2023-04-06T21:45:21.976Z,53.39
2023-04-06T21:55:46.829Z,53.10
2023-04-06T22:06:08.272Z,52.79
2023-04-06T22:16:29.544Z,53.10
2023-04-06T22:26:50.691Z,52.91
2023-04-06T22:37:12.036Z,53.55
2023-04-06T22:47:33.740Z,53.22
2023-04-06T22:57:55.107Z,52.61
2023-04-06T23:08:16.096Z,53.02
2023-04-06T23:18:37.173Z,52.79
2023-04-06T23:28:58.751Z,52.74
2023-04-06T23:39:19.879Z,52.67
2023-04-06T23:49:41.247Z,52.88
